createdAt,value
2018-05-11T00:01:36.951Z,13.70
2018-05-11T00:04:41.270Z,13.67
2018-05-11T00:07:44.595Z,13.65
2018-05-11T00:10:47.971Z,13.59
2018-05-11T00:13:51.313Z,13.61
2018-05-11T00:16:54.688Z,13.59
2018-05-11T00:19:58.064Z,13.47
2018-05-11T00:23:01.413Z,13.44
2018-05-11T00:26:05.982Z,13.49
2018-05-11T00:29:09.156Z,13.51
2018-05-11T00:32:13.479Z,13.55
2018-05-11T00:35:16.906Z,13.54
2018-05-11T00:38:20.288Z,13.51
2018-05-11T00:41:24.625Z,13.51
2018-05-11T00:44:27.995Z,13.44
2018-05-11T00:47:32.376Z,13.42
2018-05-11T00:50:36.764Z,13.43
2018-05-11T00:53:40.176Z,13.41
2018-05-11T00:56:43.517Z,13.40
2018-05-11T00:59:47.024Z,13.45
2018-05-11T01:02:50.451Z,13.50
2018-05-11T01:05:54.745Z,13.55
2018-05-11T01:08:58.231Z,13.58
2018-05-11T01:12:01.646Z,13.53
2018-05-11T01:15:06.040Z,13.44
2018-05-11T01:18:09.399Z,13.45
2018-05-11T01:21:12.759Z,13.52
2018-05-11T01:24:16.086Z,13.52
2018-05-11T01:27:19.390Z,13.59
2018-05-11T01:30:22.773Z,13.65
2018-05-11T01:33:26.078Z,13.64
2018-05-11T01:36:29.419Z,13.61
2018-05-11T01:39:33.264Z,13.63
2018-05-11T01:42:36.616Z,13.62
2018-05-11T01:45:40.954Z,13.62
2018-05-11T01:48:44.317Z,13.58
2018-05-11T01:51:47.627Z,13.55
2018-05-11T01:54:50.877Z,13.51
2018-05-11T01:57:54.238Z,13.49
2018-05-11T02:00:57.635Z,13.45
2018-05-11T02:04:00.923Z,13.44
2018-05-11T02:07:05.371Z,13.38
2018-05-11T02:10:08.741Z,13.33
2018-05-11T02:13:12.097Z,13.29
2018-05-11T02:16:15.435Z,13.22
2018-05-11T02:19:20.910Z,13.23
2018-05-11T02:22:24.275Z,13.24
2018-05-11T02:25:27.703Z,13.16
2018-05-11T02:28:30.991Z,13.11
2018-05-11T02:31:35.537Z,13.13
2018-05-11T02:34:39.139Z,13.13
2018-05-11T02:37:42.417Z,13.12
2018-05-11T02:40:45.776Z,13.09
2018-05-11T02:43:49.060Z,13.08
2018-05-11T02:46:52.390Z,13.03
2018-05-11T02:49:55.809Z,13.02
2018-05-11T02:52:59.190Z,12.97
2018-05-11T02:56:02.514Z,13.01
2018-05-11T02:59:06.855Z,12.93
2018-05-11T03:02:10.203Z,12.73
2018-05-11T03:05:13.519Z,12.64
2018-05-11T03:08:16.779Z,12.58
2018-05-11T03:11:21.140Z,12.64
2018-05-11T03:14:25.460Z,12.64
2018-05-11T03:17:28.864Z,12.62
2018-05-11T03:20:32.259Z,12.60
2018-05-11T03:23:36.561Z,12.62
2018-05-11T03:26:40.037Z,12.64
2018-05-11T03:29:43.363Z,12.61
2018-05-11T03:32:46.664Z,12.50
2018-05-11T03:35:50.036Z,12.41
2018-05-11T03:38:55.527Z,12.41
2018-05-11T03:41:58.807Z,12.48
2018-05-11T03:45:02.295Z,12.51
2018-05-11T03:48:06.744Z,12.54
2018-05-11T03:51:10.029Z,12.54
2018-05-11T03:54:13.451Z,12.46
2018-05-11T03:57:16.741Z,12.45
2018-05-11T04:00:19.923Z,12.43
2018-05-11T04:04:38.415Z,12.50
2018-05-11T04:07:52.879Z,12.39
2018-05-11T04:10:56.241Z,12.40
2018-05-11T04:13:59.676Z,12.44
2018-05-11T04:17:03.099Z,12.40
2018-05-11T04:20:06.760Z,12.35
2018-05-11T04:23:10.275Z,12.32
2018-05-11T04:26:13.548Z,12.19
2018-05-11T04:29:16.726Z,12.17
2018-05-11T04:32:20.032Z,12.16
2018-05-11T04:35:23.420Z,12.13
2018-05-11T04:38:26.847Z,12.13
2018-05-11T04:41:30.280Z,12.18
2018-05-11T04:44:34.733Z,12.26
2018-05-11T04:47:38.317Z,12.31
2018-05-11T04:50:41.679Z,12.39
2018-05-11T04:53:44.907Z,12.43
2018-05-11T04:56:48.207Z,12.46
2018-05-11T04:59:51.404Z,12.52
2018-05-11T05:02:54.773Z,12.58
2018-05-11T05:05:58.631Z,12.55
2018-05-11T05:09:01.925Z,12.58
2018-05-11T05:12:05.308Z,12.62
2018-05-11T05:15:08.627Z,12.68
2018-05-11T05:18:11.915Z,12.76
2018-05-11T05:21:15.211Z,12.83
2018-05-11T05:24:19.636Z,12.94
2018-05-11T05:27:22.987Z,12.98
2018-05-11T05:30:26.288Z,13.06
2018-05-11T05:33:29.636Z,13.10
2018-05-11T05:36:33.002Z,13.14
2018-05-11T05:39:36.390Z,13.16
2018-05-11T05:42:39.612Z,13.16
2018-05-11T05:45:42.969Z,13.22
2018-05-11T05:48:46.287Z,13.34
2018-05-11T05:51:49.695Z,13.38
2018-05-11T05:54:53.098Z,13.44
2018-05-11T05:57:56.402Z,13.50
2018-05-11T06:00:59.776Z,13.60
2018-05-11T06:04:03.175Z,13.64
2018-05-11T06:07:07.287Z,13.68
2018-05-11T06:10:10.620Z,13.70
2018-05-11T06:13:13.990Z,13.71
2018-05-11T06:16:17.274Z,13.75
2018-05-11T06:19:20.791Z,13.84
2018-05-11T06:22:24.191Z,13.99
2018-05-11T06:25:27.578Z,14.06
2018-05-11T06:28:31.930Z,14.17
2018-05-11T06:31:36.191Z,14.20
2018-05-11T06:34:39.539Z,14.23
2018-05-11T06:37:42.747Z,14.27
2018-05-11T06:40:46.042Z,14.30
2018-05-11T06:43:49.399Z,14.33
2018-05-11T06:46:52.700Z,14.31
2018-05-11T06:49:56.036Z,14.48
2018-05-11T06:52:59.406Z,14.70
2018-05-11T06:56:03.757Z,14.87
2018-05-11T06:59:07.748Z,14.93
2018-05-11T07:02:11.206Z,14.99
2018-05-11T07:05:14.640Z,15.08
2018-05-11T07:08:17.851Z,15.30
2018-05-11T07:11:21.157Z,15.46
2018-05-11T07:14:25.520Z,15.50
2018-05-11T07:17:29.415Z,15.52
2018-05-11T07:20:33.491Z,15.48
2018-05-11T07:23:38.497Z,15.42
2018-05-11T07:26:41.808Z,15.49
2018-05-11T07:29:45.052Z,15.55
2018-05-11T07:32:48.341Z,15.57
2018-05-11T07:35:51.708Z,15.30
2018-05-11T07:38:55.038Z,15.47
2018-05-11T07:41:58.440Z,15.68
2018-05-11T07:45:01.692Z,15.78
2018-05-11T07:48:05.592Z,16.05
2018-05-11T07:51:09.091Z,16.43
2018-05-11T07:54:12.385Z,16.58
2018-05-11T07:57:15.897Z,16.64
2018-05-11T08:00:19.241Z,16.64
2018-05-11T08:03:22.569Z,16.51
2018-05-11T08:06:26.052Z,16.68
2018-05-11T08:09:29.489Z,16.83
2018-05-11T08:12:32.921Z,16.67
2018-05-11T08:15:37.521Z,16.78
2018-05-11T08:18:40.841Z,16.87
2018-05-11T08:21:44.400Z,16.87
2018-05-11T08:24:47.745Z,17.05
2018-05-11T08:27:51.091Z,17.19
2018-05-11T08:30:54.465Z,16.86
2018-05-11T08:33:58.023Z,16.98
2018-05-11T08:37:01.377Z,16.92
2018-05-11T08:40:04.800Z,16.88
2018-05-11T08:43:08.600Z,16.88
2018-05-11T08:46:12.717Z,17.16
2018-05-11T08:49:16.770Z,17.35
2018-05-11T08:52:20.620Z,17.50
2018-05-11T08:55:23.917Z,17.68
2018-05-11T08:58:27.681Z,17.74
2018-05-11T09:01:32.175Z,17.76
2018-05-11T09:04:36.020Z,17.82
2018-05-11T09:07:39.378Z,17.90
2018-05-11T09:10:42.743Z,17.63
2018-05-11T09:13:45.961Z,17.60
2018-05-11T09:16:49.362Z,17.73
2018-05-11T09:19:52.684Z,17.84
2018-05-11T09:22:56.092Z,17.96
2018-05-11T09:25:59.469Z,18.02
2018-05-11T09:29:02.677Z,18.27
2018-05-11T09:32:06.339Z,18.83
2018-05-11T09:35:09.679Z,19.18
2018-05-11T09:38:13.051Z,19.06
2018-05-11T09:41:19.052Z,18.60
2018-05-11T09:44:23.331Z,18.59
2018-05-11T09:47:26.695Z,18.72
2018-05-11T09:50:29.928Z,18.30
2018-05-11T09:53:33.398Z,18.81
2018-05-11T09:56:37.147Z,19.14
2018-05-11T09:59:40.451Z,19.02
2018-05-11T10:02:43.743Z,18.69
2018-05-11T10:05:47.305Z,18.47
2018-05-11T10:08:50.552Z,18.60
2018-05-11T10:11:53.785Z,18.62
2018-05-11T10:14:58.086Z,18.81
2018-05-11T10:18:02.628Z,19.14
2018-05-11T10:21:05.951Z,19.56
2018-05-11T10:24:09.400Z,19.75
2018-05-11T10:27:12.946Z,19.86
2018-05-11T10:30:16.327Z,19.60
2018-05-11T10:33:19.613Z,19.46
2018-05-11T10:36:24.060Z,19.45
2018-05-11T10:39:27.330Z,19.32
2018-05-11T10:42:30.712Z,19.18
2018-05-11T10:45:35.040Z,19.28
2018-05-11T10:48:38.420Z,19.23
2018-05-11T10:51:41.586Z,19.14
2018-05-11T10:54:44.954Z,19.18
2018-05-11T10:57:48.344Z,19.06
2018-05-11T11:00:51.647Z,19.00
2018-05-11T11:03:55.012Z,19.51
2018-05-11T11:06:58.251Z,19.95
2018-05-11T11:10:02.685Z,20.23
2018-05-11T11:13:06.184Z,20.27
2018-05-11T11:16:09.511Z,20.33
2018-05-11T11:19:12.787Z,20.21
2018-05-11T11:22:16.154Z,20.43
2018-05-11T11:25:19.478Z,20.76
2018-05-11T11:28:22.848Z,20.81
2018-05-11T11:31:26.727Z,20.99
2018-05-11T11:34:31.000Z,21.26
2018-05-11T11:37:34.277Z,21.41
2018-05-11T11:40:38.639Z,21.57
2018-05-11T11:43:42.316Z,21.67
2018-05-11T11:46:45.717Z,21.84
2018-05-11T11:49:48.951Z,21.87
2018-05-11T11:52:52.309Z,21.87
2018-05-11T11:55:55.715Z,21.91
2018-05-11T11:58:59.115Z,21.75
2018-05-11T12:02:02.533Z,21.50
2018-05-11T12:05:07.263Z,21.41
2018-05-11T12:08:10.680Z,21.49
2018-05-11T12:11:13.979Z,21.79
2018-05-11T12:14:17.403Z,22.08
2018-05-11T12:17:20.717Z,22.00
2018-05-11T12:20:24.571Z,22.21
2018-05-11T12:23:27.978Z,22.50
2018-05-11T12:26:31.362Z,22.49
2018-05-11T12:29:35.204Z,22.57
2018-05-11T12:32:38.451Z,22.82
2018-05-11T12:35:41.727Z,22.85
2018-05-11T12:38:45.394Z,22.38
2018-05-11T12:41:48.848Z,22.00
2018-05-11T12:44:52.213Z,21.72
2018-05-11T12:47:55.674Z,21.78
2018-05-11T12:50:59.923Z,22.21
2018-05-11T12:54:03.257Z,22.49
2018-05-11T12:57:07.412Z,22.68
2018-05-11T13:00:10.788Z,23.02
2018-05-11T13:03:14.977Z,23.03
2018-05-11T13:06:18.277Z,22.86
2018-05-11T13:09:21.705Z,22.69
2018-05-11T13:12:25.101Z,22.57
2018-05-11T13:15:29.451Z,22.40
2018-05-11T13:18:32.842Z,22.26
2018-05-11T13:21:36.048Z,22.59
2018-05-11T13:24:39.356Z,22.86
2018-05-11T13:27:42.620Z,23.15
2018-05-11T13:30:46.103Z,23.27
2018-05-11T13:33:49.345Z,23.35
2018-05-11T13:36:52.767Z,23.36
2018-05-11T13:39:56.134Z,23.17
2018-05-11T13:42:59.358Z,23.25
2018-05-11T13:46:02.709Z,23.43
2018-05-11T13:49:05.983Z,23.67
2018-05-11T13:52:09.426Z,23.43
2018-05-11T13:55:14.771Z,23.17
2018-05-11T13:58:18.182Z,23.18
2018-05-11T14:01:21.447Z,22.87
2018-05-11T14:04:25.871Z,22.93
2018-05-11T14:07:29.142Z,22.83
2018-05-11T14:10:32.555Z,23.12
2018-05-11T14:13:35.916Z,23.33
2018-05-11T14:16:39.271Z,23.55
2018-05-11T14:19:42.726Z,23.67
2018-05-11T14:22:47.626Z,23.46
2018-05-11T14:25:51.071Z,23.83
2018-05-11T14:28:54.436Z,24.27
2018-05-11T14:31:57.836Z,24.27
2018-05-11T14:35:01.099Z,24.41
2018-05-11T14:38:04.423Z,24.63
2018-05-11T14:41:07.774Z,24.15
2018-05-11T14:44:11.214Z,23.34
2018-05-11T14:47:15.155Z,23.25
2018-05-11T14:50:18.624Z,23.38
2018-05-11T14:53:22.064Z,23.35
2018-05-11T14:56:26.245Z,23.21
2018-05-11T14:59:29.484Z,22.87
2018-05-11T15:02:32.857Z,22.79
2018-05-11T15:05:36.114Z,22.70
2018-05-11T15:08:39.476Z,22.64
2018-05-11T15:11:42.880Z,22.50
2018-05-11T15:14:46.257Z,22.56
2018-05-11T15:17:49.568Z,22.80
2018-05-11T15:20:52.972Z,22.90
2018-05-11T15:23:56.252Z,22.97
2018-05-11T15:26:59.669Z,22.89
2018-05-11T15:30:03.206Z,23.03
2018-05-11T15:33:06.606Z,22.89
2018-05-11T15:36:10.214Z,23.01
2018-05-11T15:39:13.634Z,23.18
2018-05-11T15:42:17.755Z,23.50
2018-05-11T15:45:21.053Z,23.55
2018-05-11T15:48:24.442Z,23.18
2018-05-11T15:51:27.752Z,23.02
2018-05-11T15:54:31.045Z,23.32
2018-05-11T15:57:34.488Z,23.53
2018-05-11T16:00:37.987Z,23.46
2018-05-11T16:03:41.324Z,23.24
2018-05-11T16:06:44.659Z,23.20
2018-05-11T16:09:48.845Z,23.50
2018-05-11T16:12:52.365Z,23.76
2018-05-11T16:15:55.713Z,23.67
2018-05-11T16:18:59.124Z,23.72
2018-05-11T16:22:02.524Z,23.88
2018-05-11T16:25:06.904Z,24.01
2018-05-11T16:28:10.320Z,24.02
2018-05-11T16:31:13.754Z,24.04
2018-05-11T16:34:17.116Z,23.66
2018-05-11T16:37:20.494Z,23.55
2018-05-11T16:40:23.934Z,23.71
2018-05-11T16:43:27.111Z,23.25
2018-05-11T16:46:31.705Z,23.29
2018-05-11T16:49:43.471Z,23.19
2018-05-11T16:52:46.823Z,22.96
2018-05-11T16:55:50.250Z,23.02
2018-05-11T16:58:53.641Z,23.10
2018-05-11T17:01:57.147Z,23.07
2018-05-11T17:05:00.511Z,23.10
2018-05-11T17:08:04.038Z,22.89
2018-05-11T17:11:08.578Z,22.83
2018-05-11T17:14:11.821Z,22.73
2018-05-11T17:17:15.085Z,22.65
2018-05-11T17:20:18.499Z,22.61
2018-05-11T17:23:21.881Z,22.52
2018-05-11T17:26:25.153Z,22.53
2018-05-11T17:29:28.649Z,22.63
2018-05-11T17:32:31.977Z,22.71
2018-05-11T17:35:35.315Z,22.66
2018-05-11T17:38:38.884Z,22.62
2018-05-11T17:41:42.388Z,22.52
2018-05-11T17:44:45.802Z,22.52
2018-05-11T17:47:49.226Z,22.47
2018-05-11T17:50:52.615Z,22.45
2018-05-11T17:53:56.000Z,22.38
2018-05-11T17:56:59.915Z,22.27
2018-05-11T18:00:04.671Z,22.29
2018-05-11T18:03:09.052Z,22.31
2018-05-11T18:06:14.705Z,22.27
2018-05-11T18:09:18.052Z,22.13
2018-05-11T18:12:21.513Z,21.98
2018-05-11T18:15:24.788Z,21.92
2018-05-11T18:18:28.089Z,21.93
2018-05-11T18:21:31.486Z,21.89
2018-05-11T18:24:34.945Z,21.88
2018-05-11T18:27:38.470Z,21.83
2018-05-11T18:30:42.474Z,21.71
2018-05-11T18:33:46.444Z,21.68
2018-05-11T18:36:49.973Z,21.60
2018-05-11T18:39:53.625Z,21.55
2018-05-11T18:42:57.514Z,21.46
2018-05-11T18:46:01.489Z,21.38
2018-05-11T18:49:05.954Z,21.30
2018-05-11T18:52:09.712Z,21.23
2018-05-11T18:55:13.665Z,21.15
2018-05-11T18:58:17.578Z,21.11
2018-05-11T19:01:22.163Z,20.93
2018-05-11T19:04:25.772Z,20.81
2018-05-11T19:07:29.623Z,20.72
2018-05-11T19:10:33.244Z,20.68
2018-05-11T19:13:37.719Z,20.56
2018-05-11T19:16:41.668Z,20.52
2018-05-11T19:19:45.257Z,20.45
2018-05-11T19:22:48.859Z,20.46
2018-05-11T19:25:52.777Z,20.48
2018-05-11T19:28:56.789Z,20.47
2018-05-11T19:32:00.400Z,20.41
2018-05-11T19:35:03.694Z,20.34
2018-05-11T19:38:08.112Z,20.27
2018-05-11T19:41:11.463Z,20.26
2018-05-11T19:44:14.914Z,20.17
2018-05-11T19:47:18.160Z,20.06
2018-05-11T19:50:22.569Z,20.01
2018-05-11T19:53:25.804Z,19.95
2018-05-11T19:56:29.142Z,19.88
2018-05-11T19:59:32.327Z,19.84
2018-05-11T20:02:35.711Z,19.66
2018-05-11T20:05:39.077Z,19.56
2018-05-11T20:08:42.440Z,19.40
2018-05-11T20:11:45.871Z,19.43
2018-05-11T20:14:49.312Z,19.41
2018-05-11T20:17:52.680Z,19.37
2018-05-11T20:20:56.140Z,19.34
2018-05-11T20:24:00.631Z,19.31
2018-05-11T20:27:03.878Z,19.26
2018-05-11T20:30:09.401Z,19.26
2018-05-11T20:33:12.651Z,19.22
2018-05-11T20:36:16.095Z,19.12
2018-05-11T20:39:23.337Z,19.08
2018-05-11T20:42:26.695Z,19.06
2018-05-11T20:45:30.021Z,19.02
2018-05-11T20:48:33.333Z,18.95
2018-05-11T20:51:36.530Z,18.85
2018-05-11T20:54:39.916Z,18.78
2018-05-11T20:57:43.396Z,18.77
2018-05-11T21:00:46.725Z,18.76
2018-05-11T21:03:50.079Z,18.73
2018-05-11T21:06:53.537Z,18.64
2018-05-11T21:09:56.827Z,18.60
2018-05-11T21:13:00.703Z,18.51
2018-05-11T21:16:04.021Z,18.45
2018-05-11T21:19:07.420Z,18.42
2018-05-11T21:22:10.816Z,18.42
2018-05-11T21:25:15.032Z,18.31
2018-05-11T21:28:18.879Z,18.27
2018-05-11T21:31:22.217Z,18.28
2018-05-11T21:34:26.571Z,18.22
2018-05-11T21:37:29.995Z,18.19
2018-05-11T21:40:33.373Z,18.22
2018-05-11T21:43:36.759Z,18.23
2018-05-11T21:46:41.131Z,18.22
2018-05-11T21:49:44.699Z,18.22
2018-05-11T21:52:48.993Z,18.25
2018-05-11T21:55:52.406Z,18.22
2018-05-11T21:58:56.452Z,18.12
2018-05-11T22:02:00.845Z,18.10
2018-05-11T22:05:04.249Z,18.14
2018-05-11T22:08:07.558Z,18.12
2018-05-11T22:11:10.931Z,18.13
2018-05-11T22:14:14.441Z,18.11
2018-05-11T22:17:17.744Z,18.06
2018-05-11T22:20:22.206Z,18.08
2018-05-11T22:23:26.635Z,18.08
2018-05-11T22:26:30.014Z,18.11
2018-05-11T22:29:33.326Z,18.10
2018-05-11T22:32:36.748Z,18.08
2018-05-11T22:35:40.131Z,18.06
2018-05-11T22:38:43.454Z,17.96
2018-05-11T22:41:47.184Z,17.87
2018-05-11T22:44:50.507Z,17.82
2018-05-11T22:47:54.187Z,17.78
2018-05-11T22:50:57.535Z,17.68
2018-05-11T22:54:00.820Z,17.68
2018-05-11T22:57:04.135Z,17.65
2018-05-11T23:00:07.552Z,17.63
2018-05-11T23:03:10.951Z,17.59
2018-05-11T23:06:14.253Z,17.51
2018-05-11T23:09:17.672Z,17.47
2018-05-11T23:12:20.980Z,17.42
2018-05-11T23:15:25.248Z,17.39
2018-05-11T23:18:29.224Z,17.33
2018-05-11T23:21:32.821Z,17.29
2018-05-11T23:24:36.855Z,17.19
2018-05-11T23:27:40.551Z,17.14
2018-05-11T23:30:44.356Z,17.10
2018-05-11T23:33:47.905Z,17.04
2018-05-11T23:36:51.980Z,16.99
2018-05-11T23:39:56.462Z,16.98
2018-05-11T23:43:00.445Z,16.85
2018-05-11T23:46:04.472Z,16.83
2018-05-11T23:49:09.048Z,16.83
2018-05-11T23:52:13.072Z,16.79
2018-05-11T23:55:16.664Z,16.76
2018-05-11T23:58:20.531Z,16.70
